Time;durP1;ratioP1;P1;durP2;ratioP2;P2;SDS_P1;SDS_P2;PMS_P1;PMS_P2;Temp;Humidity;BMP_temperature;BMP_pressure;BME280_temperature;BME280_humidity;BME280_pressure;Samples;Min_cycle;Max_cycle;Signal;HPM_P1;HPM_P2
2021/05/28 00:01:21;;;;;;;15.48;9.75;;;;;;;19.78;82.47;99514.81;5098651;28;20030;-65
2021/05/28 00:03:47;;;;;;;14.52;9.77;;;;;;;19.72;82.23;99503.09;5097874;28;20024;-66
2021/05/28 00:06:12;;;;;;;14.07;9.32;;;;;;;19.74;81.85;99510.91;5099009;28;20024;-65
2021/05/28 00:08:38;;;;;;;11.35;8.70;;;;;;;19.79;81.17;99516.47;5097452;28;20043;-65
2021/05/28 00:11:04;;;;;;;16.02;9.43;;;;;;;19.59;83.00;99503.25;5097655;28;20032;-65
2021/05/28 00:13:29;;;;;;;15.18;8.95;;;;;;;19.52;82.53;99507.91;5101543;28;20031;-65
2021/05/28 00:15:55;;;;;;;17.58;8.77;;;;;;;19.46;82.43;99508.78;5101560;28;20028;-65
2021/05/28 00:18:20;;;;;;;19.02;9.40;;;;;;;19.55;82.03;99506.63;5101614;28;20069;-66
2021/05/28 00:20:46;;;;;;;12.95;8.50;;;;;;;19.60;81.34;99504.91;5101765;28;20035;-65
2021/05/28 00:23:11;;;;;;;14.27;8.07;;;;;;;19.58;80.70;99504.31;5083143;28;20023;-65
2021/05/28 00:25:37;;;;;;;14.48;7.18;;;;;;;19.52;80.32;99502.53;5102538;28;20038;-65
2021/05/28 00:28:03;;;;;;;18.05;8.07;;;;;;;19.51;80.07;99505.41;5101179;28;20047;-65
2021/05/28 00:30:28;;;;;;;14.30;6.75;;;;;;;19.39;80.58;99506.16;5101519;28;20039;-65
2021/05/28 00:32:54;;;;;;;10.32;6.72;;;;;;;19.49;79.29;99511.00;5101947;28;20039;-66
2021/05/28 00:35:19;;;;;;;9.82;6.00;;;;;;;19.62;77.45;99510.88;5101312;28;20062;-65
2021/05/28 00:37:45;;;;;;;9.13;5.43;;;;;;;19.61;77.05;99506.53;5102038;28;20061;-65
2021/05/28 00:40:13;;;;;;;12.48;5.10;;;;;;;19.55;76.75;99509.31;5101537;28;20164;-65
2021/05/28 00:42:38;;;;;;;9.93;5.97;;;;;;;19.38;78.03;99485.72;5100939;28;20028;-66
2021/05/28 00:45:06;;;;;;;8.90;5.70;;;;;;;19.43;77.65;99495.78;5101124;28;20112;-65
2021/05/28 00:47:32;;;;;;;7.88;4.90;;;;;;;19.34;78.35;99506.03;5101457;28;20102;-66
2021/05/28 00:49:57;;;;;;;12.88;5.18;;;;;;;19.27;77.86;99510.66;5100985;28;20040;-66
2021/05/28 00:52:23;;;;;;;10.50;5.47;;;;;;;19.40;78.15;99507.81;5101508;28;20036;-65
2021/05/28 00:54:48;;;;;;;12.52;4.97;;;;;;;19.25;77.52;99510.03;5100547;28;20059;-66
2021/05/28 00:57:14;;;;;;;14.10;4.90;;;;;;;19.21;77.83;99503.50;5100650;28;20047;-65
2021/05/28 00:59:40;;;;;;;12.10;4.95;;;;;;;19.32;77.45;99486.63;5101546;28;20063;-65
2021/05/28 01:02:06;;;;;;;9.80;5.00;;;;;;;19.38;76.68;99484.91;5103581;28;20204;-65
2021/05/28 01:04:31;;;;;;;10.68;4.60;;;;;;;19.46;76.27;99480.06;5105019;28;20032;-66
2021/05/28 01:06:57;;;;;;;10.57;4.50;;;;;;;19.47;75.67;99480.88;5105212;28;20028;-65
2021/05/28 01:09:22;;;;;;;11.15;4.60;;;;;;;19.44;75.96;99484.00;5104782;28;20035;-66
2021/05/28 01:11:48;;;;;;;9.55;4.72;;;;;;;19.54;75.44;99484.31;5102773;28;20333;-65
2021/05/28 01:14:13;;;;;;;14.43;4.65;;;;;;;19.45;75.81;99477.59;5100299;28;20032;-65
2021/05/28 01:16:38;;;;;;;11.27;4.75;;;;;;;19.50;75.46;99469.69;5101653;28;20028;-65
2021/05/28 01:19:04;;;;;;;10.77;4.43;;;;;;;19.49;75.50;99465.34;5100291;28;20167;-65
2021/05/28 01:21:30;;;;;;;11.20;4.43;;;;;;;19.50;75.03;99467.00;5101219;28;20225;-65
2021/05/28 01:23:55;;;;;;;11.57;4.82;;;;;;;19.40;75.16;99469.41;5102211;28;20039;-66
2021/05/28 01:26:21;;;;;;;8.75;5.53;;;;;;;19.31;75.85;99462.69;5102156;28;20252;-65
2021/05/28 01:28:47;;;;;;;10.05;5.20;;;;;;;19.30;75.92;99464.56;5099749;28;20042;-65
2021/05/28 01:31:12;;;;;;;15.38;6.63;;;;;;;19.29;76.57;99460.25;5100967;28;20043;-65
2021/05/28 01:33:43;;;;;;;10.35;5.80;;;;;;;19.19;76.19;99449.22;5099718;28;20027;-65
2021/05/28 01:36:09;;;;;;;17.67;6.50;;;;;;;19.05;76.63;99445.88;5099874;28;20036;-66
2021/05/28 01:38:35;;;;;;;12.70;5.75;;;;;;;19.17;75.92;99461.22;5100663;28;20325;-66
2021/05/28 01:41:00;;;;;;;8.27;5.70;;;;;;;19.08;76.25;99466.88;5099482;28;20032;-65
2021/05/28 01:43:26;;;;;;;7.80;5.65;;;;;;;18.96;77.15;99467.84;5100002;28;20031;-65
2021/05/28 01:45:51;;;;;;;13.93;6.07;;;;;;;18.92;77.63;99469.34;5100144;28;20055;-65
2021/05/28 01:48:17;;;;;;;9.07;5.43;;;;;;;18.88;77.59;99468.97;5099565;28;20023;-65
2021/05/28 01:50:43;;;;;;;9.70;5.57;;;;;;;18.90;77.69;99474.94;5100985;28;20034;-65
2021/05/28 01:53:15;;;;;;;11.23;6.18;;;;;;;18.91;77.69;99475.75;5099608;28;20159;-66
2021/05/28 01:55:41;;;;;;;12.02;5.60;;;;;;;18.98;77.10;99479.19;5099687;28;20043;-65
2021/05/28 01:58:09;;;;;;;13.80;5.43;;;;;;;19.06;76.97;99482.38;5100412;28;20032;-66
2021/05/28 02:00:35;;;;;;;13.13;5.30;;;;;;;18.98;76.98;99481.88;5100379;28;20089;-66
2021/05/28 02:03:01;;;;;;;11.43;5.88;;;;;;;18.98;77.57;99490.72;5099322;28;20032;-66
2021/05/28 02:05:26;;;;;;;10.45;6.13;;;;;;;19.04;77.61;99489.03;5100619;28;20063;-66
2021/05/28 02:07:52;;;;;;;14.25;7.13;;;;;;;19.12;77.61;99478.00;5099118;28;20042;-66
2021/05/28 02:10:17;;;;;;;13.30;9.18;;;;;;;19.04;78.50;99484.47;5099477;28;20032;-66
2021/05/28 02:12:43;;;;;;;13.65;8.75;;;;;;;18.95;79.66;99482.31;5100060;28;20028;-66
2021/05/28 02:15:09;;;;;;;19.20;8.95;;;;;;;18.98;79.54;99481.88;5099532;28;20354;-66
2021/05/28 02:17:34;;;;;;;13.27;10.05;;;;;;;18.97;79.66;99481.03;5099205;28;20175;-65
2021/05/28 02:20:00;;;;;;;14.88;10.30;;;;;;;18.95;79.57;99475.09;5099846;28;20043;-65
2021/05/28 02:22:25;;;;;;;18.40;10.00;;;;;;;18.94;79.77;99472.63;5098801;28;20216;-66
2021/05/28 02:24:51;;;;;;;14.20;9.68;;;;;;;18.90;80.43;99474.09;5099891;28;20036;-66
2021/05/28 02:27:16;;;;;;;20.48;10.13;;;;;;;19.02;80.72;99473.16;5099582;28;20024;-66
2021/05/28 02:29:42;;;;;;;16.00;9.73;;;;;;;19.00;80.07;99472.56;5099067;28;20028;-65
2021/05/28 02:32:07;;;;;;;18.67;10.43;;;;;;;19.06;79.62;99468.97;5099851;28;20051;-66
2021/05/28 02:34:33;;;;;;;14.48;10.65;;;;;;;18.88;79.66;99468.97;5098408;28;20302;-66
2021/05/28 02:36:58;;;;;;;19.98;11.02;;;;;;;18.78;80.17;99463.28;5098915;28;20039;-66
2021/05/28 02:39:23;;;;;;;17.00;11.35;;;;;;;18.76;81.31;99468.88;5099097;28;20046;-66
2021/05/28 02:41:49;;;;;;;20.35;11.52;;;;;;;18.87;81.41;99469.19;5100845;28;20042;-65
2021/05/28 02:44:14;;;;;;;27.92;13.10;;;;;;;18.84;81.34;99469.63;5101470;28;20031;-65
2021/05/28 02:46:40;;;;;;;20.58;12.10;;;;;;;18.68;82.14;99471.81;5100065;28;20028;-65
2021/05/28 02:49:05;;;;;;;23.80;13.30;;;;;;;18.70;82.91;99467.06;5098333;28;20057;-66
2021/05/28 02:51:31;;;;;;;30.13;12.93;;;;;;;18.69;83.30;99467.28;5098908;28;20024;-65
2021/05/28 02:53:57;;;;;;;19.50;13.15;;;;;;;18.73;83.10;99473.88;5098993;28;20032;-65
2021/05/28 02:56:22;;;;;;;19.48;13.43;;;;;;;18.76;83.43;99471.56;5098296;28;20028;-66
2021/05/28 02:58:48;;;;;;;30.13;14.32;;;;;;;18.79;83.31;99471.13;5099544;28;20028;-65
2021/05/28 03:01:13;;;;;;;25.95;14.82;;;;;;;18.87;82.01;99474.56;5098069;28;20067;-65
2021/05/28 03:03:39;;;;;;;25.15;15.05;;;;;;;18.83;82.19;99474.19;5098384;28;20034;-66
2021/05/28 03:06:04;;;;;;;23.55;14.85;;;;;;;18.78;82.40;99477.53;5099098;28;20020;-66
2021/05/28 03:08:30;;;;;;;30.73;15.05;;;;;;;18.80;82.33;99471.94;5098209;28;20036;-66
2021/05/28 03:10:56;;;;;;;26.70;14.02;;;;;;;18.87;81.87;99469.19;5076881;28;20074;-65
2021/05/28 03:13:23;;;;;;;23.25;14.45;;;;;;;18.91;81.69;99462.34;5099243;28;20028;-65
2021/05/28 03:15:50;;;;;;;26.15;13.90;;;;;;;18.84;82.38;99469.63;5099726;28;20050;-65
2021/05/28 03:18:18;;;;;;;23.27;13.32;;;;;;;18.90;81.95;99468.75;5098864;28;20024;-66
2021/05/28 03:20:49;;;;;;;27.13;14.07;;;;;;;18.94;81.81;99465.38;5100286;28;20384;-65
2021/05/28 03:23:16;;;;;;;24.38;13.57;;;;;;;18.99;81.57;99462.03;5101396;28;20313;-66
2021/05/28 03:25:43;;;;;;;18.33;13.07;;;;;;;19.02;81.58;99464.28;5098983;28;20031;-66
2021/05/28 03:28:09;;;;;;;17.25;14.07;;;;;;;19.02;82.45;99466.97;5099309;28;20030;-65
2021/05/28 03:30:34;;;;;;;24.85;14.23;;;;;;;19.10;81.75;99466.66;5098163;28;20338;-66
2021/05/28 03:32:59;;;;;;;23.08;14.40;;;;;;;19.15;80.15;99461.44;5097855;28;20043;-66
2021/05/28 03:35:25;;;;;;;31.65;15.50;;;;;;;18.80;82.32;99463.88;5098964;28;20027;-65
2021/05/28 03:37:50;;;;;;;27.55;16.17;;;;;;;18.52;82.93;99467.00;5097782;28;20024;-66
2021/05/28 03:40:16;;;;;;;33.83;15.55;;;;;;;18.60;83.23;99473.94;5099328;28;20202;-66
2021/05/28 03:42:41;;;;;;;28.85;14.95;;;;;;;18.52;83.13;99478.53;5097982;28;20040;-65
2021/05/28 03:45:08;;;;;;;28.08;16.42;;;;;;;18.49;84.19;99495.06;5099974;28;20255;-65
2021/05/28 03:47:34;;;;;;;28.17;15.63;;;;;;;18.52;84.54;99496.47;5102657;28;20023;-66
2021/05/28 03:50:00;;;;;;;25.55;15.93;;;;;;;18.62;84.17;99499.50;5102574;28;20272;-66
2021/05/28 03:52:25;;;;;;;33.08;15.45;;;;;;;18.81;83.24;99497.72;5102415;28;20422;-66
2021/05/28 03:54:51;;;;;;;24.25;15.02;;;;;;;18.83;83.08;99502.88;5105590;28;20036;-65
2021/05/28 03:57:16;;;;;;;28.92;16.15;;;;;;;18.89;82.31;99494.75;5085881;28;20023;-65
2021/05/28 03:59:42;;;;;;;24.52;15.30;;;;;;;18.94;82.10;99494.91;5102783;28;20024;-65
2021/05/28 04:02:07;;;;;;;25.85;15.48;;;;;;;18.85;81.95;99490.06;5101623;28;20042;-66
2021/05/28 04:04:34;;;;;;;28.42;15.98;;;;;;;18.78;82.76;99490.94;5104591;28;20318;-65
2021/05/28 04:06:59;;;;;;;26.50;15.10;;;;;;;18.88;82.27;99490.44;5104795;28;20035;-65
2021/05/28 04:09:25;;;;;;;28.00;15.93;;;;;;;18.89;82.58;99483.19;5103243;28;20211;-65
2021/05/28 04:11:51;;;;;;;22.67;14.55;;;;;;;18.90;82.47;99484.84;5106241;28;20121;-65
2021/05/28 04:14:17;;;;;;;32.15;14.60;;;;;;;19.07;82.32;99494.75;5103054;28;20032;-65
2021/05/28 04:16:42;;;;;;;22.15;14.85;;;;;;;19.11;81.92;99493.28;5102514;28;20040;-66
2021/05/28 04:19:08;;;;;;;23.38;14.85;;;;;;;19.25;80.90;99491.25;5101177;28;20233;-65
2021/05/28 04:21:34;;;;;;;25.88;14.57;;;;;;;19.26;81.38;99484.84;5104344;28;20085;-65
2021/05/28 04:24:00;;;;;;;29.38;15.40;;;;;;;19.40;80.86;99491.69;5104577;28;20039;-65
2021/05/28 04:26:26;;;;;;;28.60;15.63;;;;;;;19.36;80.65;99493.19;5101980;28;20031;-66
2021/05/28 04:28:52;;;;;;;25.38;14.25;;;;;;;19.35;80.64;99486.19;5100977;28;20352;-66
2021/05/28 04:31:17;;;;;;;25.80;14.48;;;;;;;19.48;79.82;99485.19;5098610;28;20032;-66
2021/05/28 04:33:43;;;;;;;28.52;13.40;;;;;;;19.62;79.83;99485.88;5103040;28;20024;-65
2021/05/28 04:36:08;;;;;;;21.70;12.40;;;;;;;19.73;78.89;99487.78;5104528;28;20321;-65
2021/05/28 04:38:36;;;;;;;28.02;14.23;;;;;;;19.89;78.24;99489.03;5084339;28;20248;-65
2021/05/28 04:41:01;;;;;;;22.13;12.95;;;;;;;19.98;77.55;99487.66;5101585;28;20047;-65
2021/05/28 04:43:27;;;;;;;25.05;13.48;;;;;;;19.87;78.57;99494.66;5101043;28;20340;-65
2021/05/28 04:45:52;;;;;;;23.65;14.00;;;;;;;19.89;78.64;99489.88;5100774;28;20223;-66
2021/05/28 04:48:18;;;;;;;19.08;13.13;;;;;;;19.98;78.82;99474.22;5103847;28;20366;-65
2021/05/28 04:50:43;;;;;;;26.63;12.90;;;;;;;20.06;78.24;99488.16;5104237;28;20040;-66
2021/05/28 04:53:08;;;;;;;22.55;13.00;;;;;;;20.06;77.68;99490.03;5101143;28;20222;-66
2021/05/28 04:55:34;;;;;;;21.25;12.52;;;;;;;20.17;77.23;99494.63;5101654;28;20035;-65
2021/05/28 04:58:00;;;;;;;18.85;11.40;;;;;;;20.24;76.28;99481.06;5100255;28;20081;-66
2021/05/28 05:00:26;;;;;;;17.85;10.52;;;;;;;20.36;76.43;99482.72;5100333;28;20203;-66
2021/05/28 05:02:52;;;;;;;18.50;9.45;;;;;;;20.56;75.11;99484.28;5104511;28;20031;-66
2021/05/28 05:05:18;;;;;;;17.15;8.70;;;;;;;20.60;74.81;99477.41;5105315;28;20020;-65
2021/05/28 05:07:44;;;;;;;19.83;9.15;;;;;;;20.77;73.63;99469.44;5104977;28;20325;-65
2021/05/28 05:10:11;;;;;;;17.33;8.40;;;;;;;20.89;73.48;99475.66;5086974;28;20042;-65
2021/05/28 05:12:38;;;;;;;20.45;9.38;;;;;;;20.94;72.93;99484.66;5104499;28;20047;-65
2021/05/28 05:15:04;;;;;;;15.93;7.57;;;;;;;21.19;72.04;99480.88;5104450;28;20035;-65
2021/05/28 05:17:29;;;;;;;14.43;8.00;;;;;;;21.20;71.08;99486.03;5101096;28;20347;-66
2021/05/28 05:19:55;;;;;;;14.00;8.32;;;;;;;21.29;71.49;99475.75;5099938;28;20039;-65
2021/05/28 05:22:20;;;;;;;18.38;8.75;;;;;;;21.44;70.32;99475.22;5100414;28;20336;-65
2021/05/28 05:24:46;;;;;;;19.55;9.07;;;;;;;21.53;71.07;99484.56;5102613;28;20032;-66
2021/05/28 05:27:11;;;;;;;21.50;9.75;;;;;;;21.40;70.43;99482.16;5103367;28;20025;-65
2021/05/28 05:29:37;;;;;;;19.67;9.15;;;;;;;21.52;70.45;99485.63;5100646;28;20028;-66
2021/05/28 05:32:03;;;;;;;14.18;9.32;;;;;;;21.60;70.24;99491.44;5100978;28;20036;-65
2021/05/28 05:34:28;;;;;;;19.90;9.93;;;;;;;21.49;70.98;99495.00;5099634;28;21272;-66
2021/05/28 05:36:53;;;;;;;19.02;9.40;;;;;;;21.54;71.42;99496.97;5103770;28;20028;-66
2021/05/28 05:39:21;;;;;;;19.17;10.82;;;;;;;21.41;70.85;99497.25;5084318;28;20051;-66
2021/05/28 05:41:47;;;;;;;20.02;10.30;;;;;;;21.39;71.04;99483.22;5100327;28;20023;-65
2021/05/28 05:44:12;;;;;;;18.00;10.60;;;;;;;21.32;71.47;99492.25;5099415;28;20077;-66
2021/05/28 05:46:39;;;;;;;23.63;10.48;;;;;;;21.25;71.40;99480.78;5101115;28;20073;-66
2021/05/28 05:49:04;;;;;;;22.48;10.18;;;;;;;21.33;70.93;99482.28;5100261;28;20321;-65
2021/05/28 05:51:30;;;;;;;21.52;10.80;;;;;;;21.34;70.46;99484.75;5101277;28;20069;-65
2021/05/28 05:53:55;;;;;;;22.33;10.70;;;;;;;21.30;70.49;99483.59;5102656;28;20036;-65
2021/05/28 05:56:21;;;;;;;16.67;10.93;;;;;;;21.25;71.01;99496.13;5083101;28;20035;-65
2021/05/28 05:58:46;;;;;;;21.35;10.25;;;;;;;21.31;71.62;99492.47;5099254;28;20035;-66
2021/05/28 06:01:12;;;;;;;18.63;10.30;;;;;;;21.41;69.94;99486.47;5099711;28;20022;-65
2021/05/28 06:03:37;;;;;;;18.30;10.75;;;;;;;21.39;69.93;99483.22;5072415;28;20032;-65
2021/05/28 06:06:03;;;;;;;18.38;10.70;;;;;;;21.44;70.36;99481.44;5098969;28;20321;-66
2021/05/28 06:08:28;;;;;;;17.30;9.43;;;;;;;21.43;70.41;99490.56;5100706;28;20042;-64
2021/05/28 06:10:54;;;;;;;18.05;10.73;;;;;;;21.40;70.15;99485.66;5098608;28;20040;-64
2021/05/28 06:13:19;;;;;;;21.35;10.25;;;;;;;21.50;70.44;99490.44;5099190;28;20226;-66
2021/05/28 06:15:45;;;;;;;18.90;9.32;;;;;;;21.52;69.72;99497.22;5100404;28;20288;-66
2021/05/28 06:18:10;;;;;;;18.60;10.30;;;;;;;21.52;69.93;99496.41;5099027;28;20050;-66
2021/05/28 06:20:36;;;;;;;20.58;10.35;;;;;;;21.72;69.08;99507.56;5099615;28;20024;-66
2021/05/28 06:23:02;;;;;;;21.75;9.38;;;;;;;21.68;70.03;99501.84;5081396;28;20050;-66
2021/05/28 06:25:28;;;;;;;20.02;10.18;;;;;;;21.74;69.41;99501.94;5103038;28;20044;-64
2021/05/28 06:27:53;;;;;;;14.15;9.50;;;;;;;21.40;69.43;99506.41;5101054;28;20087;-64
2021/05/28 06:30:19;;;;;;;11.77;8.77;;;;;;;21.27;70.35;99515.56;5100253;28;20241;-65
2021/05/28 06:32:45;;;;;;;21.33;9.32;;;;;;;21.14;71.35;99518.47;5098562;28;20082;-64
2021/05/28 06:35:11;;;;;;;20.92;9.57;;;;;;;21.01;72.52;99520.34;5098966;28;20036;-64
2021/05/28 06:37:36;;;;;;;13.77;10.02;;;;;;;20.99;73.05;99521.66;5099820;28;20061;-65
2021/05/28 06:40:05;;;;;;;15.85;10.02;;;;;;;20.83;72.99;99516.97;5100377;28;20047;-65
2021/05/28 06:42:30;;;;;;;21.48;11.38;;;;;;;20.88;73.26;99520.59;5101051;28;20039;-65
2021/05/28 06:44:55;;;;;;;18.02;11.10;;;;;;;20.99;72.15;99519.78;5098261;28;20059;-64
2021/05/28 06:47:22;;;;;;;25.90;11.30;;;;;;;21.01;72.95;99519.53;5101093;28;20213;-66
2021/05/28 06:49:48;;;;;;;24.92;11.65;;;;;;;20.68;73.60;99515.53;5100963;28;20229;-64
2021/05/28 06:52:13;;;;;;;18.13;11.48;;;;;;;20.73;73.96;99523.72;5098172;28;20024;-63
2021/05/28 06:54:38;;;;;;;21.50;13.02;;;;;;;20.82;74.11;99526.91;5097835;28;20032;-64
2021/05/28 06:57:04;;;;;;;23.23;13.48;;;;;;;20.93;74.33;99528.78;5098511;28;20068;-64
2021/05/28 06:59:30;;;;;;;23.10;15.18;;;;;;;20.82;74.27;99523.41;5097731;28;20073;-64
2021/05/28 07:01:55;;;;;;;20.38;13.93;;;;;;;20.77;75.40;99525.94;5097757;28;20329;-63
2021/05/28 07:04:21;;;;;;;24.45;15.23;;;;;;;20.66;75.12;99528.41;5098347;28;20325;-64
2021/05/28 07:06:47;;;;;;;25.90;15.40;;;;;;;20.62;74.90;99529.91;5097475;28;20316;-63
2021/05/28 07:09:13;;;;;;;20.10;13.75;;;;;;;20.83;74.19;99530.44;5095827;28;20031;-63
2021/05/28 07:11:38;;;;;;;19.25;11.65;;;;;;;20.70;72.95;99532.25;5097635;28;20233;-63
2021/05/28 07:14:04;;;;;;;14.52;11.07;;;;;;;20.89;73.13;99535.69;5098858;28;20309;-63
2021/05/28 07:16:30;;;;;;;19.48;11.15;;;;;;;21.06;72.53;99527.72;5100502;28;20035;-63
2021/05/28 07:18:56;;;;;;;15.48;10.18;;;;;;;20.89;71.93;99543.78;5098537;28;20082;-63
2021/05/28 07:21:25;;;;;;;18.05;9.98;;;;;;;20.92;72.20;99537.91;5078566;28;20069;-63
2021/05/28 07:23:51;;;;;;;14.68;9.57;;;;;;;20.93;72.68;99534.16;5097764;28;20210;-63
2021/05/28 07:26:16;;;;;;;19.83;9.98;;;;;;;21.15;73.42;99537.09;5097050;28;20043;-63
2021/05/28 07:28:42;;;;;;;17.83;9.10;;;;;;;21.28;73.26;99528.78;5097240;28;20087;-63
2021/05/28 07:31:08;;;;;;;15.05;9.90;;;;;;;21.43;73.45;99535.53;5099888;28;20083;-64
2021/05/28 07:33:33;;;;;;;15.73;9.90;;;;;;;21.60;72.27;99526.47;5101284;28;20043;-63
2021/05/28 07:35:59;;;;;;;13.52;9.18;;;;;;;21.46;72.85;99535.06;5083271;28;20047;-63
2021/05/28 07:38:24;;;;;;;14.88;9.40;;;;;;;21.58;73.53;99527.78;5100396;28;20073;-63
2021/05/28 07:40:50;;;;;;;15.35;8.85;;;;;;;21.57;72.26;99524.25;5102572;28;20043;-63
2021/05/28 07:43:15;;;;;;;15.40;9.63;;;;;;;21.50;74.91;99526.28;5100736;28;20024;-64
2021/05/28 07:45:41;;;;;;;12.73;8.48;;;;;;;21.42;73.53;99523.94;5101735;28;20043;-64
2021/05/28 07:48:07;;;;;;;14.65;8.82;;;;;;;21.48;73.40;99516.78;5102218;28;20103;-64
2021/05/28 07:50:45;;;;;;;12.05;7.95;;;;;;;21.68;71.33;99515.31;5102032;28;20223;-63
2021/05/28 07:53:18;;;;;;;12.77;9.05;;;;;;;21.67;69.85;99507.47;5102018;28;20103;-63
2021/05/28 07:55:44;;;;;;;14.70;8.30;;;;;;;21.60;70.00;99507.63;5102611;28;20032;-66
2021/05/28 07:58:10;;;;;;;11.50;7.95;;;;;;;21.56;69.00;99509.16;5102496;28;20302;-66
2021/05/28 08:00:35;;;;;;;11.20;7.10;;;;;;;21.55;68.85;99507.53;5101413;28;20036;-66
2021/05/28 08:03:01;;;;;;;13.57;8.35;;;;;;;21.79;69.00;99502.03;5101721;28;20020;-66
2021/05/28 08:05:27;;;;;;;10.23;8.02;;;;;;;21.79;69.12;99499.34;5102528;28;20036;-66
2021/05/28 08:07:54;;;;;;;12.00;8.60;;;;;;;21.87;72.61;99507.91;5101778;28;20047;-66
2021/05/28 08:10:20;;;;;;;12.40;8.57;;;;;;;22.01;71.58;99511.13;5102307;28;20035;-66
2021/05/28 08:12:47;;;;;;;10.95;9.18;;;;;;;22.04;72.00;99515.22;5102336;28;20039;-63
2021/05/28 08:15:12;;;;;;;12.95;8.98;;;;;;;22.12;74.06;99526.44;5101834;28;20028;-63
2021/05/28 08:17:38;;;;;;;14.35;9.63;;;;;;;22.26;73.99;99533.16;5102248;28;20024;-64
2021/05/28 08:20:04;;;;;;;15.13;9.93;;;;;;;22.21;72.77;99534.97;5102192;28;20221;-63
2021/05/28 08:22:29;;;;;;;15.77;10.02;;;;;;;22.05;74.15;99533.03;5101569;28;20044;-63
2021/05/28 08:24:55;;;;;;;14.38;8.88;;;;;;;21.99;73.14;99537.50;5101848;28;20040;-63
2021/05/28 08:27:20;;;;;;;11.88;9.35;;;;;;;22.18;75.25;99532.75;5101995;28;20329;-63
2021/05/28 08:29:46;;;;;;;13.85;11.02;;;;;;;21.98;75.01;99525.91;5101654;28;20036;-64
2021/05/28 08:32:11;;;;;;;16.70;10.70;;;;;;;22.94;77.13;99531.34;5102180;28;20030;-66
2021/05/28 08:34:37;;;;;;;12.32;8.93;;;;;;;23.39;69.50;99522.22;5105087;28;20268;-66
2021/05/28 08:37:02;;;;;;;12.15;8.25;;;;;;;23.35;67.60;99515.69;5105295;28;20048;-66
2021/05/28 08:39:27;;;;;;;8.90;6.10;;;;;;;22.96;67.36;99514.91;5105494;28;20309;-66
2021/05/28 08:41:53;;;;;;;7.30;5.65;;;;;;;22.75;65.94;99519.13;5105462;28;20038;-66
2021/05/28 08:44:24;;;;;;;13.27;7.97;;;;;;;22.71;68.57;99515.28;5104973;28;20040;-66
2021/05/28 08:46:54;;;;;;;10.65;7.80;;;;;;;22.89;68.30;99504.28;5105474;28;20103;-66
2021/05/28 08:49:20;;;;;;;12.05;7.60;;;;;;;23.01;66.07;99502.28;5105268;28;20367;-66
2021/05/28 08:51:46;;;;;;;16.02;8.45;;;;;;;23.30;69.48;99499.41;5104880;28;20104;-66
2021/05/28 08:54:12;;;;;;;12.75;9.15;;;;;;;23.70;69.74;99501.81;5104872;28;20039;-66
2021/05/28 08:56:37;;;;;;;10.57;8.40;;;;;;;23.68;64.91;99502.06;5105181;28;20252;-66
2021/05/28 08:59:05;;;;;;;11.38;7.90;;;;;;;23.84;65.98;99487.63;5104984;28;20031;-66
2021/05/28 09:01:31;;;;;;;14.07;7.57;;;;;;;24.17;61.77;99486.63;5104931;28;20032;-66
2021/05/28 09:04:02;;;;;;;11.15;7.30;;;;;;;24.82;62.84;99488.25;5105063;28;20264;-66
2021/05/28 09:06:47;;;;;;;9.38;6.40;;;;;;;25.04;60.48;99484.63;5086745;28;20016;-66
2021/05/28 09:09:13;;;;;;;9.98;6.90;;;;;;;25.62;54.37;99477.28;5104930;28;20046;-66
2021/05/28 09:12:04;;;;;;;12.68;7.97;;;;;;;25.76;54.90;99479.25;5104857;28;20059;-66
2021/05/28 09:14:45;;;;;;;12.48;7.35;;;;;;;26.02;54.71;99473.88;5104714;28;20088;-66
2021/05/28 09:17:12;;;;;;;12.55;8.32;;;;;;;25.73;55.30;99465.41;5104844;28;20103;-66
2021/05/28 09:19:39;;;;;;;12.52;8.27;;;;;;;25.68;56.35;99473.53;5104925;28;20039;-66
2021/05/28 09:22:10;;;;;;;10.35;7.93;;;;;;;25.79;54.06;99472.47;5104184;28;20035;-66
2021/05/28 09:24:41;;;;;;;7.57;6.25;;;;;;;26.04;54.06;99466.28;5104831;28;20047;-66
2021/05/28 09:27:29;;;;;;;8.13;6.20;;;;;;;25.42;55.35;99468.00;5104504;28;20032;-66
2021/05/28 09:30:06;;;;;;;9.27;5.88;;;;;;;25.39;52.30;99462.28;5104432;28;20226;-66
2021/05/28 09:32:32;;;;;;;10.95;7.47;;;;;;;25.81;53.63;99455.94;5104732;28;20028;-66
2021/05/28 09:34:58;;;;;;;9.00;6.00;;;;;;;25.80;50.82;99455.13;5104752;28;20059;-66
2021/05/28 09:37:41;;;;;;;8.30;5.10;;;;;;;25.52;52.33;99463.69;5103971;28;20027;-66
2021/05/28 09:40:17;;;;;;;7.20;5.72;;;;;;;25.34;54.36;99446.84;5104585;28;20036;-66
2021/05/28 09:42:52;;;;;;;9.88;5.88;;;;;;;25.07;51.78;99455.13;5104371;28;20024;-66
2021/05/28 09:45:24;;;;;;;5.70;5.10;;;;;;;24.99;53.55;99461.03;5103048;28;20036;-66
2021/05/28 09:47:49;;;;;;;5.03;4.05;;;;;;;24.62;50.20;99455.63;5104488;28;20214;-63
2021/05/28 09:50:15;;;;;;;7.50;4.28;;;;;;;24.80;51.50;99457.91;5104398;28;20028;-66
2021/05/28 09:52:41;;;;;;;4.18;3.05;;;;;;;24.60;49.96;99465.06;5103437;28;20036;-66
2021/05/28 09:55:08;;;;;;;7.20;4.53;;;;;;;24.52;50.66;99453.66;5104406;28;20107;-63
2021/05/28 09:57:48;;;;;;;8.15;4.00;;;;;;;24.51;52.72;99453.91;5104094;28;20028;-66
2021/05/28 10:00:31;;;;;;;4.95;3.35;;;;;;;24.28;51.07;99444.28;5103952;28;20040;-66
2021/05/28 10:03:18;;;;;;;4.93;3.17;;;;;;;24.20;49.23;99442.03;5104255;28;20027;-66
2021/05/28 10:05:50;;;;;;;6.05;2.60;;;;;;;24.35;48.27;99442.16;5104311;28;20088;-66
2021/05/28 10:08:17;;;;;;;6.93;3.40;;;;;;;24.45;51.26;99441.44;5103679;28;20023;-66
2021/05/28 10:10:45;;;;;;;7.20;3.55;;;;;;;24.26;53.01;99440.16;5104169;28;20059;-63
2021/05/28 10:13:12;;;;;;;7.18;4.10;;;;;;;24.26;54.00;99445.59;5103567;28;20052;-63
2021/05/28 10:15:42;;;;;;;5.85;3.65;;;;;;;23.99;52.75;99434.81;5103748;28;20065;-65
2021/05/28 10:18:09;;;;;;;6.30;3.38;;;;;;;24.24;52.22;99434.19;5103509;28;20032;-66
2021/05/28 10:20:37;;;;;;;7.05;3.28;;;;;;;24.23;49.51;99436.09;5103820;28;20047;-65
2021/05/28 10:23:03;;;;;;;6.75;3.38;;;;;;;24.02;49.83;99443.22;5102999;28;20364;-63
2021/05/28 10:25:29;;;;;;;5.72;3.65;;;;;;;24.03;53.76;99436.75;5103717;28;20195;-66
2021/05/28 10:27:57;;;;;;;5.82;3.40;;;;;;;24.08;52.57;99439.50;5103418;28;20035;-66
2021/05/28 10:30:28;;;;;;;6.28;3.47;;;;;;;23.91;51.33;99437.94;5103186;28;20095;-63
2021/05/28 10:33:12;;;;;;;6.95;2.97;;;;;;;23.92;52.16;99435.00;5103538;28;20024;-63
2021/05/28 10:35:45;;;;;;;12.52;4.78;;;;;;;23.93;53.91;99436.66;5103656;28;20028;-63
2021/05/28 10:38:29;;;;;;;7.78;3.67;;;;;;;23.71;55.65;99433.16;5103000;28;20300;-63
2021/05/28 10:40:55;;;;;;;5.65;3.60;;;;;;;23.55;55.26;99433.00;5103608;28;20210;-63
2021/05/28 10:43:21;;;;;;;8.05;3.30;;;;;;;23.41;56.39;99428.22;5103170;28;20024;-63
2021/05/28 10:46:06;;;;;;;6.65;3.58;;;;;;;23.17;57.83;99422.28;5102471;28;20040;-66
2021/05/28 10:48:38;;;;;;;5.75;3.72;;;;;;;23.06;57.67;99421.34;5103204;28;20032;-66
2021/05/28 10:51:08;;;;;;;8.13;4.30;;;;;;;23.01;59.60;99423.97;5103055;28;20034;-66
2021/05/28 10:53:35;;;;;;;6.32;4.25;;;;;;;22.80;60.59;99422.03;5102612;28;20063;-66
2021/05/28 10:56:07;;;;;;;7.28;4.35;;;;;;;22.63;60.44;99427.44;5084362;28;20337;-66
2021/05/28 10:58:55;;;;;;;9.57;3.80;;;;;;;22.49;59.04;99442.34;5102570;28;20225;-66
2021/05/28 11:04:01;;;;;;;9.45;5.22;;;;;;;21.68;59.99;99476.78;5103027;28;20028;-66
2021/05/28 11:06:27;;;;;;;9.18;4.22;;;;;;;21.24;62.00;99492.63;5102489;28;20218;-66
2021/05/28 11:09:12;;;;;;;12.77;3.47;;;;;;;20.86;63.61;99505.75;5102714;28;20074;-66
2021/05/28 11:11:37;;;;;;;17.75;3.67;;;;;;;20.64;68.18;99514.38;5084205;28;20394;-66
2021/05/28 11:14:08;;;;;;;10.10;4.85;;;;;;;20.22;74.32;99535.06;5102304;28;20048;-66
2021/05/28 11:16:52;;;;;;;9.90;5.38;;;;;;;19.35;77.82;99552.47;5102439;28;20047;-66
2021/05/28 11:19:29;;;;;;;16.38;8.40;;;;;;;19.09;80.09;99567.81;5102538;28;20043;-68
2021/05/28 11:22:04;;;;;;;15.13;7.18;;;;;;;18.94;84.32;99588.00;5102119;28;20023;-66
2021/05/28 11:24:50;;;;;;;10.95;5.25;;;;;;;18.75;85.27;99597.84;5102677;28;20046;-66
2021/05/28 11:27:38;;;;;;;14.68;5.00;;;;;;;18.59;80.51;99609.03;5102433;28;20199;-66